createdAt,value
2023-04-18T00:00:42.314Z,8.63
2023-04-18T00:03:09.739Z,9.52
2023-04-18T00:05:36.743Z,9.07
2023-04-18T00:08:03.807Z,8.88
2023-04-18T00:10:30.514Z,9.38
2023-04-18T00:12:58.281Z,9.68
2023-04-18T00:15:25.812Z,8.75
2023-04-18T00:17:56.461Z,9.88
2023-04-18T00:20:25.975Z,10.05
2023-04-18T00:22:53.197Z,10.30
2023-04-18T00:25:19.878Z,8.45
2023-04-18T00:27:46.507Z,10.02
2023-04-18T00:30:13.472Z,9.18
2023-04-18T00:32:40.198Z,9.35
2023-04-18T00:35:07.312Z,10.52
2023-04-18T00:37:33.945Z,9.52
2023-04-18T00:40:00.591Z,10.60
2023-04-18T00:42:28.796Z,9.75
2023-04-18T00:44:55.515Z,10.63
2023-04-18T00:47:22.270Z,11.05
2023-04-18T00:49:49.253Z,9.45
2023-04-18T00:52:17.230Z,10.50
2023-04-18T00:54:45.108Z,10.77
2023-04-18T00:57:12.980Z,10.80
2023-04-18T00:59:39.629Z,11.60
2023-04-18T01:02:06.545Z,11.85
2023-04-18T01:04:33.573Z,10.90
2023-04-18T01:07:01.385Z,12.60
2023-04-18T01:09:28.346Z,11.80
2023-04-18T01:11:55.075Z,12.80
2023-04-18T01:14:21.954Z,11.70
2023-04-18T01:16:48.592Z,11.82
2023-04-18T01:19:17.425Z,13.00
2023-04-18T01:21:44.756Z,10.90
2023-04-18T01:24:16.054Z,12.88
2023-04-18T01:26:44.900Z,13.82
2023-04-18T01:29:11.964Z,11.73
2023-04-18T01:31:39.970Z,12.27
2023-04-18T01:34:07.198Z,12.93
2023-04-18T01:36:37.009Z,12.23
2023-04-18T01:39:03.789Z,12.57
2023-04-18T01:41:32.567Z,13.57
2023-04-18T01:44:00.253Z,11.88
2023-04-18T01:46:27.492Z,11.63
2023-04-18T01:48:54.246Z,11.65
2023-04-18T01:51:20.944Z,13.18
2023-04-18T01:53:47.753Z,12.07
2023-04-18T01:56:14.379Z,13.35
2023-04-18T01:58:41.677Z,14.45
2023-04-18T02:01:08.584Z,13.38
2023-04-18T02:03:35.751Z,13.80
2023-04-18T02:06:03.755Z,14.27
2023-04-18T02:08:32.508Z,13.80
2023-04-18T02:11:01.009Z,13.05
2023-04-18T02:13:28.054Z,13.20
2023-04-18T02:15:56.533Z,12.50
2023-04-18T02:18:24.911Z,13.70
2023-04-18T02:20:51.980Z,12.90
2023-04-18T02:23:18.863Z,12.60
2023-04-18T02:25:45.713Z,15.20
2023-04-18T02:28:12.376Z,13.57
2023-04-18T02:30:39.023Z,12.85
2023-04-18T02:33:05.732Z,12.98
2023-04-18T02:35:32.430Z,12.73
2023-04-18T02:37:59.211Z,14.02
2023-04-18T02:40:25.853Z,14.50
2023-04-18T02:42:52.505Z,14.00
2023-04-18T02:45:19.195Z,12.70
2023-04-18T02:47:55.446Z,12.73
2023-04-18T02:50:22.603Z,13.95
2023-04-18T02:52:49.296Z,12.73
2023-04-18T02:55:16.144Z,14.18
2023-04-18T02:57:43.070Z,13.68
2023-04-18T03:00:10.336Z,15.25
2023-04-18T03:02:37.091Z,12.98
2023-04-18T03:05:04.136Z,12.88
2023-04-18T03:07:31.259Z,15.55
2023-04-18T03:09:57.981Z,13.52
2023-04-18T03:12:24.699Z,13.70
2023-04-18T03:14:51.364Z,14.32
2023-04-18T03:17:18.525Z,13.68
2023-04-18T03:19:46.308Z,13.63
2023-04-18T03:22:13.958Z,13.25
2023-04-18T03:24:40.831Z,14.50
2023-04-18T03:27:07.598Z,13.43
2023-04-18T03:29:34.260Z,12.60
2023-04-18T03:32:00.936Z,14.35
2023-04-18T03:34:27.629Z,14.25
2023-04-18T03:36:54.340Z,14.38
2023-04-18T03:39:20.996Z,14.63
2023-04-18T03:41:47.629Z,13.95
2023-04-18T03:44:14.656Z,14.40
2023-04-18T03:46:41.818Z,15.07
2023-04-18T03:49:08.658Z,13.98
2023-04-18T03:51:44.278Z,13.88
2023-04-18T03:54:11.011Z,13.35
2023-04-18T03:56:37.940Z,14.35
2023-04-18T03:59:04.596Z,13.48
2023-04-18T04:01:31.353Z,14.50
2023-04-18T04:03:58.180Z,12.98
2023-04-18T04:06:25.050Z,15.18
2023-04-18T04:08:51.748Z,14.15
2023-04-18T04:11:18.676Z,12.80
2023-04-18T04:13:45.334Z,13.52
2023-04-18T04:16:12.147Z,15.27
2023-04-18T04:18:38.861Z,14.88
2023-04-18T04:21:06.615Z,14.82
2023-04-18T04:23:34.227Z,14.15
2023-04-18T04:26:04.844Z,16.00
2023-04-18T04:28:31.866Z,15.25
2023-04-18T04:30:59.284Z,15.38
2023-04-18T04:33:28.663Z,14.75
2023-04-18T04:35:56.390Z,13.57
2023-04-18T04:38:23.117Z,14.63
2023-04-18T04:40:50.039Z,13.88
2023-04-18T04:43:17.171Z,13.80
2023-04-18T04:45:44.843Z,13.25
2023-04-18T04:48:11.506Z,14.27
2023-04-18T04:50:40.526Z,16.05
2023-04-18T04:53:07.718Z,13.65
2023-04-18T04:55:36.886Z,15.27
2023-04-18T04:58:03.563Z,14.98
2023-04-18T05:00:31.980Z,14.50
2023-04-18T05:02:58.819Z,14.23
2023-04-18T05:05:25.608Z,14.02
2023-04-18T05:07:52.322Z,14.73
2023-04-18T05:10:19.122Z,14.07
2023-04-18T05:12:45.874Z,16.45
2023-04-18T05:15:13.557Z,13.25
2023-04-18T05:17:40.302Z,14.55
2023-04-18T05:20:07.543Z,14.57
2023-04-18T05:22:34.325Z,13.95
2023-04-18T05:25:01.434Z,15.18
2023-04-18T05:27:30.312Z,14.60
2023-04-18T05:29:56.952Z,13.63
2023-04-18T05:32:23.668Z,14.52
2023-04-18T05:34:51.087Z,14.35
2023-04-18T05:37:20.540Z,15.52
2023-04-18T05:39:47.241Z,13.52
2023-04-18T05:42:13.934Z,15.25
2023-04-18T05:44:40.698Z,14.18
2023-04-18T05:47:08.045Z,14.52
2023-04-18T05:49:36.656Z,14.63
2023-04-18T05:52:03.455Z,12.68
2023-04-18T05:54:30.111Z,14.07
2023-04-18T05:56:57.268Z,14.60
2023-04-18T05:59:24.169Z,14.48
2023-04-18T06:01:51.405Z,14.82
2023-04-18T06:04:20.260Z,14.93
2023-04-18T06:06:47.522Z,13.80
2023-04-18T06:09:14.219Z,12.45
2023-04-18T06:11:40.842Z,14.07
2023-04-18T06:14:09.982Z,14.02
2023-04-18T06:16:37.437Z,13.23
2023-04-18T06:19:06.841Z,14.98
2023-04-18T06:21:33.526Z,13.77
2023-04-18T06:24:01.576Z,14.18
2023-04-18T06:26:30.420Z,12.68
2023-04-18T06:28:57.067Z,14.70
2023-04-18T06:31:24.621Z,13.48
2023-04-18T06:33:51.300Z,14.57
2023-04-18T06:36:19.801Z,14.88
2023-04-18T06:38:46.429Z,13.15
2023-04-18T06:41:16.688Z,13.10
2023-04-18T06:43:55.746Z,14.35
2023-04-18T06:46:29.472Z,12.95
2023-04-18T06:48:56.291Z,13.20
2023-04-18T06:51:22.983Z,13.48
2023-04-18T06:53:54.274Z,13.85
2023-04-18T06:56:21.528Z,12.30
2023-04-18T06:58:48.880Z,13.18
2023-04-18T07:04:06.917Z,12.20
2023-04-18T07:06:35.593Z,12.40
2023-04-18T07:09:02.695Z,13.02
2023-04-18T07:11:29.810Z,12.60
2023-04-18T07:16:47.121Z,13.25
2023-04-18T07:19:16.060Z,12.93
2023-04-18T07:21:44.817Z,13.25
2023-04-18T07:24:12.451Z,11.95
2023-04-18T07:26:39.494Z,13.90
2023-04-18T07:31:59.345Z,12.52
2023-04-18T07:34:29.769Z,12.95
2023-04-18T07:37:01.121Z,12.90
2023-04-18T07:39:28.495Z,11.20
2023-04-18T07:41:55.663Z,12.15
2023-04-18T07:44:22.311Z,11.82
2023-04-18T07:46:49.663Z,12.32
2023-04-18T07:49:17.815Z,12.30
2023-04-18T07:51:45.980Z,11.20
2023-04-18T07:54:12.641Z,11.50
2023-04-18T07:56:39.290Z,12.77
2023-04-18T07:59:06.452Z,13.30
2023-04-18T08:01:33.432Z,11.98
2023-04-18T08:04:02.705Z,11.07
2023-04-18T08:06:29.486Z,10.30
2023-04-18T08:08:57.730Z,12.13
2023-04-18T08:11:24.350Z,9.73
2023-04-18T08:13:51.594Z,10.32
2023-04-18T08:16:18.362Z,10.70
2023-04-18T08:18:45.067Z,10.75
2023-04-18T08:21:11.789Z,10.20
2023-04-18T08:23:38.677Z,9.23
2023-04-18T08:26:07.556Z,8.88
2023-04-18T08:28:34.174Z,9.73
2023-04-18T08:31:03.042Z,8.23
2023-04-18T08:33:29.859Z,8.35
2023-04-18T08:35:56.523Z,9.23
2023-04-18T08:38:23.321Z,8.88
2023-04-18T08:40:50.071Z,8.20
2023-04-18T08:43:17.013Z,8.52
2023-04-18T08:45:44.887Z,7.78
2023-04-18T08:48:16.268Z,8.00
2023-04-18T08:50:43.646Z,8.43
2023-04-18T08:53:10.571Z,9.70
2023-04-18T08:55:37.890Z,9.15
2023-04-18T08:58:07.831Z,9.30
2023-04-18T09:00:35.135Z,9.35
2023-04-18T09:03:02.997Z,8.52
2023-04-18T09:05:29.862Z,8.25
2023-04-18T09:07:56.799Z,9.13
2023-04-18T09:10:31.072Z,8.70
2023-04-18T09:12:58.869Z,10.30
2023-04-18T09:15:29.823Z,9.65
2023-04-18T09:20:38.078Z,8.18
2023-04-18T09:23:14.610Z,8.77
2023-04-18T09:25:44.512Z,8.63
2023-04-18T09:28:29.650Z,8.68
2023-04-18T09:31:15.182Z,9.23
2023-04-18T09:33:52.718Z,8.50
2023-04-18T09:36:22.733Z,8.30
2023-04-18T09:38:53.708Z,8.13
2023-04-18T09:41:23.680Z,7.60
2023-04-18T09:43:50.560Z,7.93
2023-04-18T09:46:24.438Z,7.28
2023-04-18T09:48:51.646Z,7.55
2023-04-18T09:51:18.812Z,6.45
2023-04-18T09:53:49.065Z,7.70
2023-04-18T09:56:27.707Z,7.30
2023-04-18T09:59:10.170Z,7.03
2023-04-18T10:01:37.544Z,6.90
2023-04-18T10:04:06.615Z,6.55
2023-04-18T10:06:39.749Z,5.72
2023-04-18T10:09:09.089Z,7.03
2023-04-18T10:11:36.418Z,6.05
2023-04-18T10:14:07.998Z,6.22
2023-04-18T10:16:37.633Z,6.13
2023-04-18T10:19:27.186Z,6.63
2023-04-18T10:21:55.589Z,6.68
2023-04-18T10:24:49.413Z,6.75
2023-04-18T10:27:17.474Z,7.38
2023-04-18T10:29:52.286Z,6.15
2023-04-18T10:32:24.911Z,7.13
2023-04-18T10:34:53.849Z,6.72
2023-04-18T10:37:22.732Z,7.25
2023-04-18T10:40:00.135Z,7.18
2023-04-18T10:42:45.599Z,7.50
2023-04-18T10:45:25.378Z,6.80
2023-04-18T10:48:30.242Z,7.03
2023-04-18T10:51:16.868Z,6.97
2023-04-18T10:53:51.519Z,6.50
2023-04-18T10:56:18.386Z,5.88
2023-04-18T10:58:51.104Z,6.78
2023-04-18T11:01:30.324Z,6.60
2023-04-18T11:03:59.522Z,6.18
2023-04-18T11:06:31.144Z,6.35
2023-04-18T11:09:14.506Z,6.63
2023-04-18T11:11:42.539Z,6.90
2023-04-18T11:14:09.658Z,5.82
2023-04-18T11:16:37.328Z,6.93
2023-04-18T11:19:21.166Z,6.15
2023-04-18T11:21:48.531Z,6.63
2023-04-18T11:24:24.639Z,5.13
2023-04-18T11:26:56.067Z,5.60
2023-04-18T11:29:24.108Z,4.95
2023-04-18T11:31:54.555Z,5.55
2023-04-18T11:34:31.643Z,5.40
2023-04-18T11:36:58.932Z,4.95
2023-04-18T11:39:27.865Z,6.18
2023-04-18T11:41:58.518Z,6.47
2023-04-18T11:44:27.868Z,5.80
2023-04-18T11:46:54.558Z,5.72
2023-04-18T11:49:33.013Z,5.88
2023-04-18T11:52:02.935Z,5.63
2023-04-18T11:54:43.925Z,5.50
2023-04-18T11:57:29.689Z,5.82
2023-04-18T11:59:58.161Z,5.68
2023-04-18T12:02:41.598Z,5.95
2023-04-18T12:05:09.596Z,6.10
2023-04-18T12:07:44.591Z,6.30
2023-04-18T12:10:20.516Z,5.78
2023-04-18T12:12:51.558Z,6.13
2023-04-18T12:15:19.422Z,6.28
2023-04-18T12:17:55.305Z,6.85
2023-04-18T12:20:26.695Z,6.25
2023-04-18T12:22:54.969Z,6.32
2023-04-18T12:25:26.907Z,6.45
2023-04-18T12:27:55.388Z,6.18
2023-04-18T12:30:23.514Z,6.80
2023-04-18T12:32:55.178Z,6.35
2023-04-18T12:35:23.101Z,5.50
2023-04-18T12:37:52.033Z,5.30
2023-04-18T12:40:19.572Z,5.40
2023-04-18T12:42:48.278Z,5.13
2023-04-18T12:45:15.976Z,5.70
2023-04-18T12:47:45.539Z,6.28
2023-04-18T12:50:19.349Z,6.53
2023-04-18T12:52:48.577Z,6.22
2023-04-18T12:55:15.730Z,5.80
2023-04-18T12:57:43.422Z,5.95
2023-04-18T13:00:13.564Z,5.40
2023-04-18T13:02:44.177Z,4.20
2023-04-18T13:05:13.360Z,4.93
2023-04-18T13:07:42.336Z,5.28
2023-04-18T13:10:11.847Z,4.57
2023-04-18T13:12:39.781Z,4.70
2023-04-18T13:15:07.508Z,4.93
2023-04-18T13:17:36.694Z,4.35
2023-04-18T13:20:06.673Z,4.60
2023-04-18T13:22:36.368Z,4.38
2023-04-18T13:25:05.663Z,4.50
2023-04-18T13:27:32.582Z,5.10
2023-04-18T13:29:59.435Z,4.65
2023-04-18T13:32:26.953Z,5.07
2023-04-18T13:34:55.954Z,5.32
2023-04-18T13:37:23.593Z,4.90
2023-04-18T13:39:50.299Z,5.07
2023-04-18T13:42:19.237Z,4.95
2023-04-18T13:44:46.323Z,5.13
2023-04-18T13:47:13.117Z,5.63
2023-04-18T13:49:40.836Z,5.20
2023-04-18T13:52:07.712Z,5.05
2023-04-18T13:54:34.527Z,4.75
2023-04-18T13:57:04.833Z,5.28
2023-04-18T13:59:32.521Z,4.30
2023-04-18T14:02:01.198Z,4.20
2023-04-18T14:04:28.237Z,4.15
2023-04-18T14:06:55.613Z,4.60
2023-04-18T14:09:22.287Z,4.13
2023-04-18T14:11:48.997Z,4.65
2023-04-18T14:14:15.676Z,4.65
2023-04-18T14:16:42.423Z,4.35
2023-04-18T14:19:10.752Z,4.45
2023-04-18T14:21:37.459Z,5.05
2023-04-18T14:24:08.693Z,4.22
2023-04-18T14:26:35.620Z,4.32
2023-04-18T14:29:04.014Z,4.40
2023-04-18T14:31:32.005Z,4.28
2023-04-18T14:33:58.624Z,3.75
2023-04-18T14:36:26.266Z,4.28
2023-04-18T14:38:54.554Z,3.60
2023-04-18T14:41:21.385Z,4.28
2023-04-18T14:43:48.358Z,3.83
2023-04-18T14:46:18.048Z,3.90
2023-04-18T14:48:46.847Z,4.18
2023-04-18T14:51:15.875Z,5.38
2023-04-18T14:53:44.072Z,5.35
2023-04-18T14:56:10.741Z,6.15
2023-04-18T14:58:37.503Z,6.57
2023-04-18T15:01:04.546Z,6.03
2023-04-18T15:03:31.665Z,5.65
2023-04-18T15:05:58.438Z,6.82
2023-04-18T15:08:25.274Z,6.00
2023-04-18T15:10:51.926Z,5.57
2023-04-18T15:13:18.564Z,6.13
2023-04-18T15:15:54.537Z,6.25
2023-04-18T15:18:21.421Z,5.57
2023-04-18T15:20:48.110Z,5.93
2023-04-18T15:23:14.989Z,6.20
2023-04-18T15:25:44.736Z,6.80
2023-04-18T15:28:15.248Z,6.68
2023-04-18T15:30:41.990Z,6.07
2023-04-18T15:33:08.927Z,7.47
2023-04-18T15:35:35.985Z,7.93
2023-04-18T15:38:02.822Z,7.00
2023-04-18T15:40:30.557Z,5.85
2023-04-18T15:42:59.422Z,7.10
2023-04-18T15:45:27.424Z,6.15
2023-04-18T15:47:54.175Z,6.60
2023-04-18T15:50:21.969Z,6.00
2023-04-18T15:52:48.628Z,6.80
2023-04-18T15:55:15.565Z,6.55
2023-04-18T15:57:42.323Z,5.90
2023-04-18T16:00:17.874Z,7.57
2023-04-18T16:02:45.863Z,6.97
2023-04-18T16:05:13.507Z,6.47
2023-04-18T16:07:41.551Z,7.07
2023-04-18T16:10:11.776Z,6.90
2023-04-18T16:12:39.760Z,7.13
2023-04-18T16:15:08.536Z,8.18
2023-04-18T16:17:38.978Z,6.80
2023-04-18T16:20:08.131Z,6.75
2023-04-18T16:22:34.941Z,6.55
2023-04-18T16:25:01.826Z,7.05
2023-04-18T16:27:28.555Z,6.85
2023-04-18T16:29:55.249Z,7.03
2023-04-18T16:32:21.988Z,6.25
2023-04-18T16:34:48.762Z,6.82
2023-04-18T16:37:15.641Z,6.93
2023-04-18T16:39:42.270Z,7.63
2023-04-18T16:42:09.009Z,7.97
2023-04-18T16:44:35.761Z,6.38
2023-04-18T16:47:07.252Z,6.57
2023-04-18T16:49:34.571Z,6.50
2023-04-18T16:52:01.869Z,7.00
2023-04-18T16:54:28.637Z,7.18
2023-04-18T16:56:55.457Z,6.82
2023-04-18T16:59:22.146Z,6.57
2023-04-18T17:01:48.851Z,6.80
2023-04-18T17:04:16.191Z,7.45
2023-04-18T17:06:43.738Z,7.57
2023-04-18T17:09:13.400Z,5.85
2023-04-18T17:11:41.105Z,5.97
2023-04-18T17:14:08.655Z,6.72
2023-04-18T17:16:39.521Z,6.75
2023-04-18T17:21:34.291Z,7.38
2023-04-18T17:24:03.920Z,7.35
2023-04-18T17:26:33.032Z,6.90
2023-04-18T17:29:06.651Z,6.93
2023-04-18T17:31:33.928Z,7.28
2023-04-18T17:34:00.723Z,8.10
2023-04-18T17:36:27.721Z,7.10
2023-04-18T17:38:55.137Z,6.57
2023-04-18T17:41:24.364Z,7.50
2023-04-18T17:43:51.072Z,6.78
2023-04-18T17:46:18.670Z,6.63
2023-04-18T17:48:45.426Z,6.68
2023-04-18T17:51:12.093Z,7.15
2023-04-18T17:53:38.808Z,6.63
2023-04-18T17:56:05.476Z,6.05
2023-04-18T17:58:32.176Z,6.63
2023-04-18T18:00:58.849Z,6.85
2023-04-18T18:03:25.821Z,6.28
2023-04-18T18:05:54.711Z,6.82
2023-04-18T18:08:21.943Z,6.60
2023-04-18T18:10:51.772Z,6.65
2023-04-18T18:13:18.403Z,6.95
2023-04-18T18:15:45.913Z,5.43
2023-04-18T18:18:12.563Z,6.25
2023-04-18T18:20:42.426Z,6.30
2023-04-18T18:23:10.782Z,6.30
2023-04-18T18:25:40.074Z,6.88
2023-04-18T18:28:08.726Z,5.35
2023-04-18T18:30:37.393Z,6.88
2023-04-18T18:33:04.404Z,6.45
2023-04-18T18:35:31.084Z,6.88
2023-04-18T18:37:57.803Z,7.18
2023-04-18T18:40:24.463Z,6.40
2023-04-18T18:42:53.711Z,6.10
2023-04-18T18:45:23.335Z,5.50
2023-04-18T18:47:50.008Z,5.75
2023-04-18T18:50:16.788Z,6.63
2023-04-18T18:52:43.426Z,6.30
2023-04-18T18:55:11.079Z,5.20
2023-04-18T18:57:37.807Z,5.28
2023-04-18T19:00:14.043Z,6.00
2023-04-18T19:02:40.871Z,6.03
2023-04-18T19:05:08.040Z,6.15
2023-04-18T19:07:34.668Z,6.07
2023-04-18T19:10:01.775Z,6.07
2023-04-18T19:12:29.180Z,6.68
2023-04-18T19:14:56.573Z,7.55
2023-04-18T19:17:25.397Z,6.88
2023-04-18T19:19:53.260Z,6.28
2023-04-18T19:22:19.912Z,7.13
2023-04-18T19:24:46.946Z,7.43
2023-04-18T19:27:13.622Z,6.72
2023-04-18T19:29:40.570Z,7.15
2023-04-18T19:32:09.447Z,6.82
2023-04-18T19:34:36.298Z,7.32
2023-04-18T19:37:05.619Z,8.07
2023-04-18T19:39:32.304Z,8.00
2023-04-18T19:41:58.894Z,6.65
2023-04-18T19:44:27.607Z,6.32
2023-04-18T19:46:54.269Z,7.13
2023-04-18T19:49:22.391Z,8.05
2023-04-18T19:51:51.348Z,7.18
2023-04-18T19:54:21.650Z,7.18
2023-04-18T19:56:48.640Z,7.10
2023-04-18T19:59:15.637Z,6.57
2023-04-18T20:01:43.494Z,7.13
2023-04-18T20:04:10.415Z,7.38
2023-04-18T20:06:37.710Z,6.65
2023-04-18T20:09:05.999Z,7.43
2023-04-18T20:11:32.677Z,7.30
2023-04-18T20:13:59.333Z,7.78
2023-04-18T20:16:26.021Z,6.43
2023-04-18T20:18:54.804Z,6.80
2023-04-18T20:21:21.732Z,7.18
2023-04-18T20:23:48.370Z,7.70
2023-04-18T20:26:15.166Z,6.93
2023-04-18T20:28:41.811Z,7.55
2023-04-18T20:31:08.980Z,7.22
2023-04-18T20:33:36.460Z,6.90
2023-04-18T20:36:03.585Z,7.05
2023-04-18T20:38:30.509Z,7.10
2023-04-18T20:41:00.744Z,7.28
2023-04-18T20:43:27.935Z,6.40
2023-04-18T20:46:00.753Z,7.28
2023-04-18T20:48:27.396Z,7.38
2023-04-18T20:50:54.020Z,7.85
2023-04-18T20:53:21.497Z,6.63
2023-04-18T20:55:48.808Z,7.40
2023-04-18T20:58:15.660Z,7.22
2023-04-18T21:00:43.802Z,7.03
2023-04-18T21:03:13.592Z,6.32
2023-04-18T21:05:40.419Z,6.97
2023-04-18T21:08:07.080Z,6.65
2023-04-18T21:10:34.076Z,6.85
2023-04-18T21:13:00.962Z,7.43
2023-04-18T21:15:27.670Z,6.88
2023-04-18T21:17:55.829Z,6.55
2023-04-18T21:20:22.662Z,6.70
2023-04-18T21:22:49.250Z,6.03
2023-04-18T21:25:16.552Z,6.63
2023-04-18T21:27:43.186Z,6.32
2023-04-18T21:30:10.008Z,6.88
2023-04-18T21:32:36.810Z,6.20
2023-04-18T21:35:03.689Z,5.63
2023-04-18T21:37:30.860Z,6.63
2023-04-18T21:39:57.491Z,6.05
2023-04-18T21:42:24.170Z,6.32
2023-04-18T21:44:50.774Z,6.90
2023-04-18T21:47:17.418Z,6.78
2023-04-18T21:49:44.071Z,5.95
2023-04-18T21:52:11.138Z,6.55
2023-04-18T21:54:37.903Z,6.90
2023-04-18T21:57:05.878Z,6.07
2023-04-18T21:59:32.726Z,7.18
2023-04-18T22:01:59.440Z,7.40
2023-04-18T22:04:27.012Z,5.80
2023-04-18T22:06:54.170Z,5.90
2023-04-18T22:09:21.306Z,6.78
2023-04-18T22:11:48.378Z,6.78
2023-04-18T22:14:15.157Z,6.82
2023-04-18T22:16:42.355Z,6.78
2023-04-18T22:19:09.071Z,6.43
2023-04-18T22:21:35.718Z,6.18
2023-04-18T22:24:02.716Z,6.55
2023-04-18T22:26:29.373Z,6.88
2023-04-18T22:28:56.229Z,7.22
2023-04-18T22:31:22.950Z,7.25
2023-04-18T22:33:49.606Z,6.45
2023-04-18T22:36:16.301Z,6.95
2023-04-18T22:38:42.964Z,7.10
2023-04-18T22:41:09.625Z,7.70
2023-04-18T22:43:36.303Z,8.35
2023-04-18T22:46:03.485Z,6.78
2023-04-18T22:48:31.077Z,8.73
2023-04-18T22:50:57.737Z,8.57
2023-04-18T22:53:24.353Z,6.70
2023-04-18T22:55:51.014Z,7.45
2023-04-18T22:58:17.702Z,7.68
2023-04-18T23:00:44.379Z,7.80
2023-04-18T23:03:11.583Z,7.45
2023-04-18T23:05:38.429Z,7.80
2023-04-18T23:08:06.864Z,7.97
2023-04-18T23:10:34.053Z,7.90
2023-04-18T23:13:00.894Z,7.68
2023-04-18T23:15:27.578Z,8.00
2023-04-18T23:17:54.366Z,7.78
2023-04-18T23:20:21.524Z,7.25
2023-04-18T23:22:51.254Z,8.10
2023-04-18T23:25:19.284Z,8.00
2023-04-18T23:27:46.264Z,7.93
2023-04-18T23:30:13.197Z,7.70
2023-04-18T23:32:39.942Z,8.20
2023-04-18T23:35:07.000Z,8.70
2023-04-18T23:37:33.709Z,7.43
2023-04-18T23:40:00.539Z,7.47
2023-04-18T23:42:27.358Z,7.72
2023-04-18T23:44:54.583Z,8.40
2023-04-18T23:47:21.837Z,9.13
2023-04-18T23:49:48.527Z,7.95
2023-04-18T23:52:15.241Z,9.02
2023-04-18T23:54:41.938Z,7.63
2023-04-18T23:57:08.571Z,8.82
2023-04-18T23:59:35.195Z,9.23
